Time;durP1;ratioP1;P1;durP2;ratioP2;P2;SDS_P1;SDS_P2;PMS_P1;PMS_P2;Temp;Humidity;BMP_temperature;BMP_pressure;BME280_temperature;BME280_humidity;BME280_pressure;Samples;Min_cycle;Max_cycle;Signal;HPM_P1;HPM_P2
2024/04/04 00:01:58;;;;;;;36.90;5.22;;;;;;;10.83;100.00;100535.66;4997403;28;20273;-64
2024/04/04 00:04:24;;;;;;;32.65;5.70;;;;;;;10.77;100.00;100528.78;4997408;28;20190;-63
2024/04/04 00:06:49;;;;;;;30.25;6.97;;;;;;;10.73;100.00;100526.34;4997160;28;20237;-64
2024/04/04 00:09:15;;;;;;;32.58;5.53;;;;;;;10.52;100.00;100524.63;4997208;28;20194;-63
2024/04/04 00:11:42;;;;;;;42.28;6.07;;;;;;;10.66;100.00;100521.28;4996761;28;20196;-63
2024/04/04 00:14:07;;;;;;;29.25;6.47;;;;;;;10.62;100.00;100511.66;4997441;28;20196;-63
2024/04/04 00:16:36;;;;;;;38.67;6.10;;;;;;;10.74;100.00;100515.53;4995777;28;20198;-64
2024/04/04 00:19:02;;;;;;;27.75;5.20;;;;;;;10.67;100.00;100523.03;4987854;28;20220;-63
2024/04/04 00:21:27;;;;;;;20.90;6.22;;;;;;;10.55;100.00;100512.91;4996751;28;20209;-64
2024/04/04 00:23:52;;;;;;;30.23;5.85;;;;;;;10.52;100.00;100507.66;4996807;28;20186;-63
2024/04/04 00:26:20;;;;;;;33.30;6.43;;;;;;;10.50;100.00;100507.72;4996680;28;20193;-63
2024/04/04 00:28:45;;;;;;;34.08;6.22;;;;;;;10.59;100.00;100509.09;4996832;28;20213;-63
2024/04/04 00:31:11;;;;;;;34.00;6.25;;;;;;;10.64;100.00;100506.22;4996716;28;20201;-63
2024/04/04 00:33:36;;;;;;;24.45;5.10;;;;;;;10.76;100.00;100499.38;4996722;28;20209;-63
2024/04/04 00:36:02;;;;;;;24.30;5.70;;;;;;;10.68;100.00;100497.09;4996226;28;20280;-63
2024/04/04 00:38:27;;;;;;;38.38;6.68;;;;;;;10.48;100.00;100498.06;4996544;28;20196;-63
2024/04/04 00:40:53;;;;;;;23.08;5.40;;;;;;;10.41;100.00;100481.41;4996567;28;20565;-63
2024/04/04 00:43:18;;;;;;;38.58;6.55;;;;;;;10.58;100.00;100474.38;4996307;28;20273;-63
2024/04/04 00:45:43;;;;;;;27.30;5.05;;;;;;;10.72;100.00;100477.25;4996589;28;20212;-63
2024/04/04 00:48:09;;;;;;;35.72;7.43;;;;;;;10.56;100.00;100474.44;4996476;28;20273;-63
2024/04/04 00:50:35;;;;;;;42.05;8.45;;;;;;;10.63;100.00;100470.53;4996256;28;20189;-63
2024/04/04 00:53:01;;;;;;;34.92;6.10;;;;;;;10.59;100.00;100490.38;4996317;28;20196;-63
2024/04/04 00:55:27;;;;;;;36.25;5.72;;;;;;;10.16;100.00;100436.19;4995218;28;20232;-63
2024/04/04 00:57:53;;;;;;;35.72;5.38;;;;;;;10.51;100.00;100487.19;4995432;28;20552;-63
2024/04/04 01:00:19;;;;;;;29.58;5.32;;;;;;;10.42;100.00;100468.91;4996339;28;20236;-63
2024/04/04 01:02:44;;;;;;;31.20;4.80;;;;;;;10.68;100.00;100476.50;4994965;28;20190;-63
2024/04/04 01:05:10;;;;;;;27.30;5.47;;;;;;;10.45;100.00;100466.06;4994505;28;20272;-63
2024/04/04 01:07:36;;;;;;;36.00;5.63;;;;;;;10.37;100.00;100477.16;4995697;28;20190;-63
2024/04/04 01:10:06;;;;;;;25.48;5.30;;;;;;;10.57;100.00;100478.00;4995647;28;20200;-63
2024/04/04 01:12:31;;;;;;;32.63;5.55;;;;;;;10.24;100.00;100481.31;4995855;28;20214;-63
2024/04/04 01:14:57;;;;;;;29.23;6.53;;;;;;;10.10;100.00;100450.72;4995831;28;20660;-63
2024/04/04 01:17:22;;;;;;;30.90;5.57;;;;;;;10.25;100.00;100475.91;4994973;28;20692;-63
2024/04/04 01:19:48;;;;;;;34.63;6.10;;;;;;;10.06;100.00;100462.53;4996049;28;20240;-63
2024/04/04 01:22:13;;;;;;;42.15;5.95;;;;;;;9.97;100.00;100461.16;4996260;28;20190;-63
2024/04/04 01:24:39;;;;;;;29.50;5.75;;;;;;;10.03;100.00;100457.31;4995883;28;20201;-63
2024/04/04 01:27:04;;;;;;;29.88;6.60;;;;;;;10.07;100.00;100447.31;4996186;28;20193;-63
2024/04/04 01:29:30;;;;;;;33.55;5.57;;;;;;;9.97;100.00;100420.16;4996077;28;20189;-63
2024/04/04 01:31:55;;;;;;;29.15;6.80;;;;;;;10.02;100.00;100450.22;4996169;28;20177;-63
2024/04/04 01:34:20;;;;;;;31.30;6.97;;;;;;;10.09;100.00;100422.25;4995400;28;20216;-63
2024/04/04 01:36:46;;;;;;;32.53;5.00;;;;;;;10.21;100.00;100436.81;4995422;28;20190;-63
2024/04/04 01:39:11;;;;;;;31.15;6.53;;;;;;;10.22;100.00;100427.84;4995407;28;20233;-63
2024/04/04 01:41:36;;;;;;;32.33;5.03;;;;;;;10.12;100.00;100432.78;4995622;28;20683;-63
2024/04/04 01:44:02;;;;;;;22.13;4.38;;;;;;;10.32;100.00;100429.16;4995330;28;20177;-63
2024/04/04 01:46:27;;;;;;;28.88;5.72;;;;;;;10.09;100.00;100426.69;4995871;28;20196;-63
2024/04/04 01:48:52;;;;;;;35.35;6.88;;;;;;;9.99;100.00;100427.13;4995405;28;20186;-63
2024/04/04 01:51:18;;;;;;;34.30;5.97;;;;;;;10.25;100.00;100426.84;4994223;28;20205;-63
2024/04/04 01:53:43;;;;;;;30.00;5.10;;;;;;;9.99;100.00;100429.81;4995042;28;20193;-63
2024/04/04 01:56:08;;;;;;;28.85;4.85;;;;;;;10.13;100.00;100422.94;4994044;28;20200;-63
2024/04/04 01:58:34;;;;;;;28.50;4.88;;;;;;;10.10;100.00;100415.94;4994646;28;20324;-63
2024/04/04 02:00:59;;;;;;;29.05;5.47;;;;;;;10.17;100.00;100432.56;4995297;28;20683;-63
2024/04/04 02:03:24;;;;;;;19.60;4.78;;;;;;;10.05;100.00;100412.63;4995138;28;20177;-63
2024/04/04 02:05:50;;;;;;;25.23;4.70;;;;;;;9.95;100.00;100411.31;4995305;28;20209;-64
2024/04/04 02:08:15;;;;;;;25.17;3.97;;;;;;;9.96;100.00;100413.06;4994741;28;20305;-63
2024/04/04 02:10:42;;;;;;;23.52;4.55;;;;;;;9.78;100.00;100378.19;4995048;28;20633;-63
2024/04/04 02:13:07;;;;;;;16.10;3.67;;;;;;;10.10;100.00;100405.22;4994662;28;20196;-63
2024/04/04 02:15:41;;;;;;;16.23;3.33;;;;;;;10.08;100.00;100392.88;4977617;28;20198;-63
2024/04/04 02:18:06;;;;;;;18.70;3.50;;;;;;;9.94;100.00;100373.00;4993953;28;20576;-63
2024/04/04 02:20:33;;;;;;;16.25;3.15;;;;;;;10.21;100.00;100403.84;4977607;28;20178;-63
2024/04/04 02:22:58;;;;;;;17.48;3.22;;;;;;;10.25;100.00;100386.69;4995063;28;20212;-63
2024/04/04 02:25:24;;;;;;;17.23;3.30;;;;;;;10.22;100.00;100381.50;4993713;28;20178;-63
2024/04/04 02:27:49;;;;;;;26.80;3.22;;;;;;;10.19;100.00;100328.97;4994473;28;20272;-63
2024/04/04 02:30:15;;;;;;;10.95;2.88;;;;;;;10.47;100.00;100373.13;4994864;28;20276;-63
2024/04/04 02:32:41;;;;;;;11.52;2.42;;;;;;;10.42;100.00;100378.72;4994901;28;20201;-64
2024/04/04 02:35:07;;;;;;;9.75;3.03;;;;;;;10.41;100.00;100373.44;4994448;28;20206;-63
2024/04/04 02:37:33;;;;;;;18.13;2.17;;;;;;;10.47;100.00;100375.81;4977229;28;20194;-64
2024/04/04 02:39:59;;;;;;;13.18;2.50;;;;;;;10.45;100.00;100372.34;4994846;28;20640;-63
2024/04/04 02:42:24;;;;;;;15.05;2.53;;;;;;;10.59;100.00;100359.13;4994799;28;20189;-63
2024/04/04 02:44:50;;;;;;;16.50;2.78;;;;;;;10.62;100.00;100371.50;4994856;28;20226;-63
2024/04/04 02:47:15;;;;;;;19.52;3.28;;;;;;;10.35;100.00;100351.41;4994729;28;20671;-63
2024/04/04 02:49:40;;;;;;;8.52;1.95;;;;;;;10.37;100.00;100356.69;4977578;28;20572;-63
2024/04/04 02:52:06;;;;;;;16.27;2.40;;;;;;;10.21;100.00;100366.38;4994684;28;20213;-63
2024/04/04 02:54:32;;;;;;;14.52;2.33;;;;;;;10.21;100.00;100375.25;4994440;28;20201;-63
2024/04/04 02:56:57;;;;;;;8.70;1.63;;;;;;;10.35;100.00;100364.78;4993310;28;20691;-63
2024/04/04 02:59:22;;;;;;;11.20;2.58;;;;;;;10.22;100.00;100354.72;4994605;28;20676;-63
2024/04/04 03:01:47;;;;;;;7.07;1.85;;;;;;;10.39;100.00;100360.13;4993461;28;20189;-64
2024/04/04 03:04:13;;;;;;;4.90;1.73;;;;;;;10.17;100.00;100360.31;4994546;28;20218;-63
2024/04/04 03:06:39;;;;;;;10.32;2.47;;;;;;;10.08;100.00;100353.59;4993090;28;20186;-64
2024/04/04 03:09:07;;;;;;;10.05;2.38;;;;;;;10.09;100.00;100344.63;4994611;28;20192;-64
2024/04/04 03:11:33;;;;;;;11.55;2.20;;;;;;;10.07;100.00;100342.97;4994402;28;20185;-63
2024/04/04 03:13:59;;;;;;;9.00;2.60;;;;;;;10.01;100.00;100349.47;4993323;28;20186;-63
2024/04/04 03:16:24;;;;;;;15.63;2.95;;;;;;;10.19;100.00;100345.03;4993257;28;20208;-63
2024/04/04 03:18:49;;;;;;;11.82;2.90;;;;;;;10.25;100.00;100336.69;4994469;28;20173;-64
2024/04/04 03:21:15;;;;;;;12.88;2.67;;;;;;;10.19;100.00;100337.00;4994276;28;20218;-63
2024/04/04 03:23:40;;;;;;;14.70;2.50;;;;;;;10.26;100.00;100333.09;4994561;28;20178;-63
2024/04/04 03:26:05;;;;;;;14.25;2.80;;;;;;;10.33;100.00;100326.50;4994382;28;20196;-63
2024/04/04 03:28:31;;;;;;;20.02;4.60;;;;;;;10.62;100.00;100321.47;4994137;28;20182;-63
2024/04/04 03:30:56;;;;;;;18.40;5.15;;;;;;;10.62;100.00;100321.47;4994596;28;20189;-64
2024/04/04 03:33:21;;;;;;;16.58;5.75;;;;;;;10.42;100.00;100313.59;4995213;28;20268;-63
2024/04/04 03:35:47;;;;;;;16.27;5.38;;;;;;;10.38;100.00;100310.19;4994454;28;20205;-63
2024/04/04 03:38:12;;;;;;;13.35;6.05;;;;;;;10.63;100.00;100319.69;4994691;28;20198;-64
2024/04/04 03:40:37;;;;;;;21.08;5.07;;;;;;;10.26;100.00;100306.31;4994461;28;20240;-63
2024/04/04 03:43:03;;;;;;;20.88;5.30;;;;;;;10.57;100.00;100315.50;4994732;28;20224;-64
2024/04/04 03:45:29;;;;;;;17.00;5.28;;;;;;;10.48;100.00;100310.59;4994514;28;20186;-63
2024/04/04 03:47:57;;;;;;;16.17;5.03;;;;;;;10.22;100.00;100286.00;4994240;28;20182;-64
2024/04/04 03:50:22;;;;;;;12.00;4.10;;;;;;;10.14;100.00;100302.44;4994581;28;20194;-64
2024/04/04 03:52:47;;;;;;;17.83;5.05;;;;;;;10.28;100.00;100293.72;4993891;28;20192;-64
2024/04/04 03:55:13;;;;;;;19.17;5.63;;;;;;;10.22;100.00;100291.34;4993855;28;20676;-64
2024/04/04 03:57:38;;;;;;;15.95;5.40;;;;;;;10.20;100.00;100282.53;4994104;28;20208;-63
2024/04/04 04:00:06;;;;;;;14.32;5.85;;;;;;;10.12;100.00;100290.06;4993958;28;20237;-64
2024/04/04 04:02:31;;;;;;;20.88;6.05;;;;;;;9.87;100.00;100280.59;4994877;28;20174;-63
2024/04/04 04:04:57;;;;;;;10.68;5.45;;;;;;;10.17;100.00;100283.53;4992433;28;20240;-63
2024/04/04 04:07:22;;;;;;;13.00;6.72;;;;;;;10.15;100.00;100274.75;4993750;28;20534;-63
2024/04/04 04:09:47;;;;;;;19.67;6.60;;;;;;;10.18;100.00;100254.97;4993465;28;20273;-63
2024/04/04 04:12:13;;;;;;;19.33;7.18;;;;;;;10.24;100.00;100268.03;4993698;28;20221;-64
2024/04/04 04:14:39;;;;;;;19.90;6.63;;;;;;;10.15;100.00;100257.78;4993370;28;20201;-64
2024/04/04 04:17:04;;;;;;;20.63;7.35;;;;;;;10.34;100.00;100252.41;4993641;28;20205;-64
2024/04/04 04:19:29;;;;;;;20.25;6.60;;;;;;;10.35;100.00;100238.06;4992375;28;20186;-64
2024/04/04 04:21:55;;;;;;;14.50;6.28;;;;;;;10.06;100.00;100239.53;4993747;28;20664;-64
2024/04/04 04:24:20;;;;;;;14.65;6.22;;;;;;;10.21;100.00;100240.56;4993682;28;20575;-63
2024/04/04 04:26:46;;;;;;;22.42;7.30;;;;;;;10.16;100.00;100219.38;4993727;28;20213;-64
2024/04/04 04:29:17;;;;;;;19.45;6.07;;;;;;;10.21;100.00;100220.00;4993309;28;20229;-63
2024/04/04 04:31:43;;;;;;;16.55;6.63;;;;;;;10.22;100.00;100215.53;4993789;28;20182;-63
2024/04/04 04:34:08;;;;;;;19.20;5.38;;;;;;;10.31;100.00;100209.72;4993235;28;20549;-64
2024/04/04 04:36:36;;;;;;;17.30;6.65;;;;;;;10.21;100.00;100200.41;4993302;28;20194;-63
2024/04/04 04:39:02;;;;;;;16.65;7.30;;;;;;;10.14;100.00;100199.88;4993060;28;20190;-63
2024/04/04 04:41:28;;;;;;;18.33;7.30;;;;;;;10.04;100.00;100185.22;4994894;28;20640;-64
2024/04/04 04:43:53;;;;;;;23.88;8.10;;;;;;;10.06;100.00;100145.88;4996420;28;20202;-64
2024/04/04 04:46:18;;;;;;;22.02;8.88;;;;;;;10.12;100.00;100148.22;4996560;28;20209;-63
2024/04/04 04:48:44;;;;;;;21.13;8.57;;;;;;;10.09;100.00;100145.72;4996276;28;20182;-63
2024/04/04 04:51:10;;;;;;;24.73;10.80;;;;;;;10.01;100.00;100146.09;4996368;28;20604;-63
2024/04/04 04:53:36;;;;;;;21.27;10.50;;;;;;;10.33;100.00;100175.72;4996268;28;20197;-63
2024/04/04 04:56:02;;;;;;;21.20;11.80;;;;;;;10.31;100.00;100162.38;4996401;28;20212;-63
2024/04/04 04:58:27;;;;;;;30.52;12.63;;;;;;;10.33;100.00;100141.75;4996086;28;20241;-64
2024/04/04 05:00:53;;;;;;;21.52;11.52;;;;;;;10.08;100.00;100152.88;4996234;28;20523;-64
2024/04/04 05:03:22;;;;;;;20.52;11.25;;;;;;;10.20;100.00;100167.44;4995809;28;20186;-64
2024/04/04 05:05:50;;;;;;;25.10;11.77;;;;;;;10.16;100.00;100163.19;4994948;28;20263;-63
2024/04/04 05:08:16;;;;;;;22.63;12.48;;;;;;;10.54;100.00;100152.28;4994995;28;20652;-64
2024/04/04 05:10:41;;;;;;;24.17;14.57;;;;;;;10.44;100.00;100151.03;4994934;28;20197;-64
2024/04/04 05:13:06;;;;;;;32.63;15.38;;;;;;;10.25;100.00;100157.34;4995544;28;20280;-64
2024/04/04 05:15:42;;;;;;;22.67;14.25;;;;;;;10.34;100.00;100159.56;4995843;28;20736;-64
2024/04/04 05:18:07;;;;;;;27.35;16.90;;;;;;;10.10;100.00;100158.16;4995662;28;20181;-64
2024/04/04 05:20:33;;;;;;;26.67;16.00;;;;;;;9.96;100.00;100134.78;4995920;28;20529;-64
2024/04/04 05:22:58;;;;;;;27.35;15.77;;;;;;;9.96;100.00;100137.47;4995827;28;20213;-64
2024/04/04 05:25:23;;;;;;;27.90;16.75;;;;;;;10.01;100.00;100146.09;4995774;28;20228;-64
2024/04/04 05:27:49;;;;;;;32.17;16.67;;;;;;;9.87;100.00;100152.19;4995600;28;20190;-66
2024/04/04 05:30:14;;;;;;;30.70;16.65;;;;;;;10.07;100.00;100140.44;4995746;28;20178;-64
2024/04/04 05:32:40;;;;;;;29.55;17.05;;;;;;;10.35;100.00;100139.00;4995382;28;20186;-64
2024/04/04 05:35:06;;;;;;;34.08;17.48;;;;;;;10.26;100.00;100131.44;4995502;28;20560;-64
2024/04/04 05:37:32;;;;;;;27.02;16.65;;;;;;;10.57;100.00;100132.53;4995511;28;20911;-64
2024/04/04 05:39:57;;;;;;;29.63;15.88;;;;;;;10.35;100.00;100121.16;4995817;28;20196;-64
2024/04/04 05:42:24;;;;;;;29.05;16.75;;;;;;;10.27;100.00;100133.19;4977848;28;20544;-64
2024/04/04 05:44:49;;;;;;;22.75;15.27;;;;;;;10.16;100.00;100144.44;4995440;28;20205;-64
2024/04/04 05:47:15;;;;;;;31.10;17.13;;;;;;;10.23;100.00;100137.84;4995205;28;20208;-63
2024/04/04 05:49:40;;;;;;;29.05;16.48;;;;;;;10.09;100.00;100135.88;4995157;28;20188;-63
2024/04/04 05:52:05;;;;;;;25.15;15.40;;;;;;;10.24;100.00;100149.41;4994754;28;20239;-64
2024/04/04 05:54:31;;;;;;;27.55;15.75;;;;;;;10.12;100.00;100126.81;4994081;28;20223;-64
2024/04/04 05:56:56;;;;;;;21.90;16.10;;;;;;;10.33;100.00;100119.50;4995052;28;20216;-64
2024/04/04 05:59:21;;;;;;;26.77;16.92;;;;;;;10.29;100.00;100120.56;4977333;28;20673;-63
2024/04/04 06:01:47;;;;;;;26.63;16.42;;;;;;;10.43;100.00;100126.09;4994688;28;20653;-64
2024/04/04 06:04:12;;;;;;;24.38;16.00;;;;;;;10.47;100.00;100126.78;4994982;28;20185;-64
2024/04/04 06:06:38;;;;;;;26.05;15.27;;;;;;;10.30;100.00;100133.88;4994678;28;20215;-64
2024/04/04 06:09:03;;;;;;;24.73;15.20;;;;;;;10.40;100.00;100117.34;4994665;28;20194;-63
2024/04/04 06:11:29;;;;;;;23.02;14.85;;;;;;;10.31;100.00;100137.44;4994748;28;20225;-63
2024/04/04 06:13:54;;;;;;;27.38;16.40;;;;;;;10.31;100.00;100127.56;4994501;28;20178;-63
2024/04/04 06:16:19;;;;;;;24.45;14.48;;;;;;;10.43;100.00;100122.53;4994694;28;20292;-64
2024/04/04 06:18:45;;;;;;;24.27;13.48;;;;;;;10.57;100.00;100125.34;4994363;28;20218;-64
2024/04/04 06:21:10;;;;;;;20.25;12.90;;;;;;;10.59;100.00;100117.22;4994645;28;20665;-64
2024/04/04 06:23:35;;;;;;;23.00;13.07;;;;;;;10.78;100.00;100117.06;4993317;28;20592;-64
2024/04/04 06:26:01;;;;;;;15.57;11.52;;;;;;;10.82;100.00;100107.91;4994700;28;20263;-64
2024/04/04 06:28:26;;;;;;;18.00;11.25;;;;;;;10.91;100.00;100109.22;4994417;28;20687;-63
2024/04/04 06:30:51;;;;;;;15.95;10.93;;;;;;;10.65;100.00;100066.84;4993148;28;20182;-63
2024/04/04 06:33:17;;;;;;;15.48;10.57;;;;;;;10.99;100.00;100104.28;4994234;28;20189;-64
2024/04/04 06:35:42;;;;;;;20.55;11.95;;;;;;;10.89;100.00;100095.91;4993518;28;20288;-64
2024/04/04 06:38:07;;;;;;;16.70;10.20;;;;;;;10.91;100.00;100093.13;4994566;28;20187;-64
2024/04/04 06:40:40;;;;;;;15.48;9.98;;;;;;;10.79;100.00;100076.78;4994291;28;20560;-64
2024/04/04 06:43:05;;;;;;;14.45;10.43;;;;;;;10.79;100.00;100094.69;4994310;28;20221;-63
2024/04/04 06:45:30;;;;;;;15.70;10.50;;;;;;;10.93;100.00;100102.81;4994244;28;20220;-63
2024/04/04 06:48:00;;;;;;;19.30;11.45;;;;;;;10.76;100.00;100095.72;4993842;28;20185;-63
2024/04/04 06:50:26;;;;;;;17.25;11.07;;;;;;;10.83;100.00;100107.81;4992981;28;20190;-63
2024/04/04 06:52:52;;;;;;;18.40;11.55;;;;;;;11.02;100.00;100088.88;4994030;28;20232;-64
2024/04/04 06:55:17;;;;;;;19.35;11.18;;;;;;;10.96;100.00;100081.19;4994028;28;20254;-64
2024/04/04 06:57:43;;;;;;;15.98;11.23;;;;;;;11.02;100.00;100077.31;4993622;28;20196;-64
2024/04/04 07:00:11;;;;;;;19.33;11.25;;;;;;;11.01;100.00;100086.28;4994094;28;20676;-63
2024/04/04 07:02:37;;;;;;;20.58;10.98;;;;;;;10.96;100.00;100091.91;4993631;28;20185;-64
2024/04/04 07:05:03;;;;;;;20.10;10.63;;;;;;;11.06;100.00;100097.63;4993392;28;20197;-63
2024/04/04 07:07:29;;;;;;;13.88;7.85;;;;;;;11.07;100.00;100096.66;4994210;28;20280;-63
2024/04/04 07:09:54;;;;;;;20.05;7.95;;;;;;;11.21;100.00;100104.78;4993662;28;20178;-64
2024/04/04 07:12:20;;;;;;;13.85;4.95;;;;;;;11.24;100.00;100099.25;4993953;28;20192;-64
2024/04/04 07:14:45;;;;;;;8.43;3.65;;;;;;;11.39;100.00;100091.25;4992128;28;20247;-64
2024/04/04 07:17:10;;;;;;;20.75;4.15;;;;;;;11.52;100.00;100097.63;4993733;28;20300;-64
2024/04/04 07:19:36;;;;;;;10.68;3.70;;;;;;;11.29;100.00;100101.66;4992760;28;20185;-64
2024/04/04 07:22:01;;;;;;;17.15;3.33;;;;;;;11.36;100.00;100100.38;4994058;28;20280;-64
2024/04/04 07:24:27;;;;;;;22.05;6.25;;;;;;;11.40;100.00;100104.56;4993959;28;20193;-64
2024/04/04 07:26:52;;;;;;;14.95;3.90;;;;;;;11.32;100.00;100106.84;4994179;28;20182;-64
2024/04/04 07:29:17;;;;;;;11.77;3.40;;;;;;;11.24;100.00;100119.84;4993839;28;20247;-64
2024/04/04 07:31:42;;;;;;;25.15;4.30;;;;;;;11.37;100.00;100109.25;4993743;28;20656;-64
2024/04/04 07:34:08;;;;;;;17.80;3.42;;;;;;;11.38;100.00;100078.81;4993513;28;20669;-64
2024/04/04 07:36:33;;;;;;;23.05;4.75;;;;;;;11.19;100.00;100092.41;4993923;28;20520;-64
2024/04/04 07:38:59;;;;;;;17.50;3.72;;;;;;;11.29;100.00;100080.22;4993298;28;20224;-64
2024/04/04 07:41:24;;;;;;;30.77;4.35;;;;;;;11.43;100.00;100056.13;4993513;28;20198;-64
2024/04/04 07:43:50;;;;;;;28.88;4.22;;;;;;;11.33;100.00;100043.34;4992355;28;20661;-64
2024/04/04 07:46:16;;;;;;;18.15;3.95;;;;;;;11.46;100.00;100038.13;4993499;28;20228;-64
2024/04/04 07:48:44;;;;;;;18.70;4.30;;;;;;;11.31;100.00;100054.16;4993676;28;20181;-64
2024/04/04 07:51:10;;;;;;;23.58;4.82;;;;;;;11.20;100.00;100076.25;4993796;28;20208;-64
2024/04/04 07:53:35;;;;;;;22.05;3.80;;;;;;;11.13;100.00;100064.13;4993155;28;20613;-64
2024/04/04 07:56:00;;;;;;;17.05;3.88;;;;;;;11.11;100.00;100070.56;4993486;28;20309;-64
2024/04/04 07:58:26;;;;;;;25.33;4.47;;;;;;;11.07;100.00;100077.91;4992904;28;20213;-64
2024/04/04 08:00:52;;;;;;;18.83;4.55;;;;;;;11.23;100.00;100062.66;4993297;28;20178;-64
2024/04/04 08:03:18;;;;;;;20.95;4.00;;;;;;;11.25;100.00;100075.97;4993212;28;20186;-64
2024/04/04 08:05:43;;;;;;;19.42;4.05;;;;;;;11.26;100.00;100083.06;4993351;28;20700;-64
2024/04/04 08:08:09;;;;;;;10.90;2.67;;;;;;;11.22;100.00;100073.47;4992764;28;20542;-64
2024/04/04 08:10:35;;;;;;;12.98;2.95;;;;;;;11.10;100.00;100077.72;4993508;28;20292;-64
2024/04/04 08:13:01;;;;;;;16.73;3.17;;;;;;;11.21;100.00;100077.97;4993345;28;20186;-64
2024/04/04 08:15:26;;;;;;;12.88;2.85;;;;;;;11.34;100.00;100079.94;4994670;28;20208;-64
2024/04/04 08:17:52;;;;;;;24.83;4.03;;;;;;;11.23;100.00;100080.56;4996665;28;20177;-64
2024/04/04 08:20:17;;;;;;;25.23;4.80;;;;;;;11.48;100.00;100079.13;4979216;28;20269;-64
2024/04/04 08:22:46;;;;;;;21.67;5.15;;;;;;;11.35;100.00;100087.03;4996891;28;20193;-65
2024/04/04 08:25:15;;;;;;;18.60;4.20;;;;;;;11.42;100.00;100075.88;4996953;28;20190;-64
2024/04/04 08:27:41;;;;;;;25.20;4.97;;;;;;;11.31;100.00;100089.03;4996786;28;20263;-64
2024/04/04 08:30:08;;;;;;;27.75;4.65;;;;;;;11.19;100.00;100092.41;4995381;28;20193;-64
2024/04/04 08:32:33;;;;;;;27.27;5.65;;;;;;;11.13;100.00;100090.94;4996639;28;20261;-65
2024/04/04 08:35:00;;;;;;;31.63;5.35;;;;;;;11.27;100.00;100086.59;4996320;28;20296;-64
2024/04/04 08:37:26;;;;;;;31.08;6.55;;;;;;;11.26;100.00;100084.91;4995981;28;20186;-64
2024/04/04 08:39:51;;;;;;;27.88;5.68;;;;;;;11.19;100.00;100095.09;4996129;28;20284;-64
2024/04/04 08:42:16;;;;;;;47.47;6.53;;;;;;;11.26;100.00;100096.47;4996167;28;20761;-64
2024/04/04 08:44:45;;;;;;;21.35;5.00;;;;;;;11.19;100.00;100090.63;4953557;28;20210;-65
2024/04/04 08:47:12;;;;;;;26.90;5.55;;;;;;;11.16;100.00;100090.75;4995663;28;20264;-64
2024/04/04 08:49:39;;;;;;;23.45;4.38;;;;;;;11.27;100.00;100098.22;4994532;28;20354;-64
2024/04/04 08:52:05;;;;;;;26.77;5.22;;;;;;;11.29;100.00;100111.53;4996591;28;20612;-64
2024/04/04 08:54:31;;;;;;;31.70;5.00;;;;;;;11.32;100.00;100098.81;4994980;28;20217;-64
2024/04/04 08:56:58;;;;;;;30.60;5.50;;;;;;;11.20;100.00;100096.84;4996422;28;20236;-64
2024/04/04 08:59:23;;;;;;;24.38;5.10;;;;;;;11.42;100.00;100108.06;4994666;28;20229;-66
2024/04/04 09:01:48;;;;;;;27.73;5.20;;;;;;;11.42;100.00;100083.91;4995757;28;20197;-64
2024/04/04 09:04:28;;;;;;;25.83;4.93;;;;;;;11.68;100.00;100100.25;4995920;28;20217;-66
2024/04/04 09:06:53;;;;;;;26.20;5.53;;;;;;;11.85;100.00;100095.69;4993346;28;20189;-65
2024/04/04 09:09:19;;;;;;;25.65;4.50;;;;;;;12.18;100.00;100094.66;4994934;28;20198;-65
2024/04/04 09:11:45;;;;;;;28.85;6.22;;;;;;;12.25;100.00;100102.22;4995877;28;20655;-65
2024/04/04 09:14:11;;;;;;;27.67;5.13;;;;;;;12.57;100.00;100099.34;4995980;28;20193;-65
2024/04/04 09:16:37;;;;;;;29.08;4.93;;;;;;;12.57;100.00;100114.59;4995669;28;20248;-64
2024/04/04 09:19:19;;;;;;;25.90;5.65;;;;;;;12.78;100.00;100091.72;4995574;28;20186;-65
2024/04/04 09:21:45;;;;;;;22.58;5.25;;;;;;;12.92;100.00;100114.16;4995958;28;20196;-64
2024/04/04 09:24:15;;;;;;;25.63;4.53;;;;;;;12.70;100.00;100079.75;4995614;28;20218;-64
2024/04/04 09:26:41;;;;;;;25.80;4.95;;;;;;;13.10;100.00;100130.94;4968291;28;20186;-64
2024/04/04 09:29:07;;;;;;;32.47;3.92;;;;;;;13.14;100.00;100110.94;4995414;28;20633;-65
2024/04/04 09:31:38;;;;;;;23.35;3.92;;;;;;;13.14;100.00;100130.63;4977850;28;20727;-65
2024/04/04 09:34:04;;;;;;;28.77;5.88;;;;;;;13.26;100.00;100107.47;4995436;28;20652;-65
2024/04/04 09:36:31;;;;;;;24.05;6.72;;;;;;;13.28;100.00;100129.72;4995281;28;20212;-65
2024/04/04 09:38:58;;;;;;;28.05;4.68;;;;;;;13.48;100.00;100124.91;4995263;28;20178;-64
2024/04/04 09:41:23;;;;;;;20.20;3.55;;;;;;;13.49;100.00;100150.81;4993866;28;20240;-65
2024/04/04 09:43:50;;;;;;;33.45;5.20;;;;;;;13.52;100.00;100162.25;4971096;28;20715;-64
2024/04/04 09:46:19;;;;;;;20.85;4.20;;;;;;;13.37;100.00;100164.13;4995119;28;20549;-64
2024/04/04 09:48:45;;;;;;;14.82;3.30;;;;;;;12.99;100.00;100163.91;4993835;28;20328;-64
2024/04/04 09:51:11;;;;;;;28.33;5.05;;;;;;;12.89;100.00;100168.13;4995199;28;20289;-64
2024/04/04 09:53:38;;;;;;;25.20;4.97;;;;;;;12.91;100.00;100161.69;4994648;28;20200;-64
2024/04/04 09:56:05;;;;;;;25.38;4.45;;;;;;;12.87;100.00;100183.50;4995176;28;20308;-66
2024/04/04 09:58:32;;;;;;;29.67;5.55;;;;;;;12.84;100.00;100185.41;4995052;28;20237;-67
2024/04/04 10:01:19;;;;;;;28.33;6.53;;;;;;;12.54;100.00;100149.72;4995639;28;20189;-64
2024/04/04 10:03:48;;;;;;;37.30;6.03;;;;;;;12.75;100.00;100179.75;4995165;28;20177;-63
2024/04/04 10:06:32;;;;;;;24.45;5.10;;;;;;;12.42;100.00;100194.31;4995105;28;20213;-64
2024/04/04 10:08:58;;;;;;;39.75;5.60;;;;;;;12.52;100.00;100184.72;4983800;28;20277;-64
2024/04/04 10:11:28;;;;;;;25.70;4.50;;;;;;;12.29;100.00;100165.50;4993266;28;20616;-64
2024/04/04 10:13:53;;;;;;;25.45;4.35;;;;;;;12.42;100.00;100200.56;4994559;28;20194;-64
2024/04/04 10:16:35;;;;;;;31.02;5.80;;;;;;;12.36;100.00;100210.78;4994476;28;20708;-64
2024/04/04 10:19:14;;;;;;;31.63;6.68;;;;;;;12.44;100.00;100198.63;4994608;28;20549;-63
2024/04/04 10:21:39;;;;;;;26.50;6.25;;;;;;;12.69;100.00;100199.81;4977867;28;20563;-63
2024/04/04 10:24:06;;;;;;;24.85;5.10;;;;;;;12.98;100.00;100215.94;4994937;28;20182;-64
2024/04/04 10:26:32;;;;;;;27.27;5.00;;;;;;;12.90;100.00;100196.75;4994616;28;20196;-65
2024/04/04 10:28:57;;;;;;;30.83;5.40;;;;;;;12.97;100.00;100201.63;4994347;28;20182;-64
2024/04/04 10:31:26;;;;;;;30.15;4.85;;;;;;;13.18;100.00;100179.69;4993285;28;20174;-64
2024/04/04 10:34:05;;;;;;;26.02;5.75;;;;;;;13.53;100.00;100196.25;4984285;28;20210;-65
2024/04/04 10:36:41;;;;;;;33.63;5.65;;;;;;;13.87;100.00;100206.63;4988123;28;20232;-64
2024/04/04 10:39:09;;;;;;;30.48;4.85;;;;;;;14.02;100.00;100220.88;4988402;28;20185;-64
2024/04/04 10:41:36;;;;;;;26.60;6.28;;;;;;;13.87;100.00;100190.47;4977298;28;20231;-64
2024/04/04 10:44:02;;;;;;;24.02;5.45;;;;;;;14.22;100.00;100200.66;4971754;28;20234;-64
2024/04/04 10:46:29;;;;;;;31.95;5.55;;;;;;;14.24;100.00;100183.44;4992968;28;20193;-65
2024/04/04 10:48:55;;;;;;;20.88;5.03;;;;;;;14.24;99.92;100215.78;4994057;28;20193;-65
2024/04/04 10:51:20;;;;;;;21.73;4.18;;;;;;;14.48;99.76;100217.72;4994285;28;20715;-64
2024/04/04 10:53:46;;;;;;;22.10;5.40;;;;;;;14.43;99.18;100209.13;4993915;28;20597;-64
2024/04/04 10:56:11;;;;;;;28.42;5.13;;;;;;;14.26;98.15;100223.75;4993870;28;20312;-65
2024/04/04 10:58:37;;;;;;;24.40;5.53;;;;;;;14.13;96.73;100229.09;4992558;28;20222;-64
2024/04/04 11:01:04;;;;;;;26.35;5.20;;;;;;;14.03;98.11;100223.47;4993950;28;20228;-64
2024/04/04 11:03:29;;;;;;;25.30;4.55;;;;;;;14.22;97.32;100228.47;4994173;28;20221;-64
2024/04/04 11:05:57;;;;;;;25.25;4.80;;;;;;;14.30;96.90;100230.63;4993807;28;20213;-64